createdAt,value
2022-11-16T00:04:22.398Z,25.23
2022-11-16T00:09:20.116Z,25.40
2022-11-16T00:14:05.876Z,28.75
2022-11-16T00:18:59.383Z,27.98
2022-11-16T00:23:44.712Z,21.98
2022-11-16T00:28:29.847Z,30.98
2022-11-16T00:33:18.254Z,27.92
2022-11-16T00:38:05.876Z,25.10
2022-11-16T00:42:51.261Z,30.70
2022-11-16T00:47:36.524Z,26.63
2022-11-16T00:52:21.539Z,22.33
2022-11-16T00:57:09.487Z,28.98
2022-11-16T01:01:54.559Z,26.08
2022-11-16T01:06:39.996Z,25.55
2022-11-16T01:11:37.359Z,23.33
2022-11-16T01:16:26.465Z,18.63
2022-11-16T01:21:12.009Z,21.98
2022-11-16T01:26:01.846Z,27.20
2022-11-16T01:30:51.225Z,25.45
2022-11-16T01:35:39.112Z,25.05
2022-11-16T01:40:24.109Z,20.13
2022-11-16T01:45:19.826Z,27.30
2022-11-16T01:50:13.476Z,25.25
2022-11-16T01:55:02.023Z,30.27
2022-11-16T01:59:49.219Z,32.10
2022-11-16T02:04:34.579Z,30.15
2022-11-16T02:09:48.527Z,32.53
2022-11-16T02:14:51.669Z,28.13
2022-11-16T02:20:05.728Z,33.92
2022-11-16T02:24:59.741Z,23.85
2022-11-16T02:29:50.947Z,25.65
2022-11-16T02:34:40.605Z,22.10
2022-11-16T02:39:30.032Z,30.25
2022-11-16T02:44:18.749Z,26.02
2022-11-16T02:49:10.395Z,19.42
2022-11-16T02:54:04.583Z,26.05
2022-11-16T02:58:50.740Z,19.63
2022-11-16T03:03:44.408Z,22.48
2022-11-16T03:08:35.816Z,30.67
2022-11-16T03:13:24.328Z,26.25
2022-11-16T03:18:11.553Z,23.38
2022-11-16T03:23:00.741Z,31.15
2022-11-16T03:27:55.803Z,37.03
2022-11-16T03:32:49.053Z,27.73
2022-11-16T03:37:34.966Z,26.75
2022-11-16T03:42:21.647Z,26.65
2022-11-16T03:47:09.400Z,27.02
2022-11-16T03:51:55.177Z,27.33
2022-11-16T03:56:40.151Z,35.17
2022-11-16T04:01:25.523Z,26.65
2022-11-16T04:06:25.988Z,25.17
2022-11-16T04:11:27.572Z,29.05
2022-11-16T04:16:26.129Z,30.23
2022-11-16T04:21:34.214Z,21.95
2022-11-16T04:26:39.720Z,23.05
2022-11-16T04:31:37.349Z,28.52
2022-11-16T04:36:37.696Z,22.83
2022-11-16T04:41:35.344Z,18.00
2022-11-16T04:46:32.680Z,20.65
2022-11-16T04:51:17.922Z,23.15
2022-11-16T04:56:05.517Z,23.38
2022-11-16T05:00:50.795Z,16.48
2022-11-16T05:05:35.762Z,24.38
2022-11-16T05:10:21.223Z,22.73
2022-11-16T05:15:10.158Z,25.92
2022-11-16T05:20:07.752Z,24.15
2022-11-16T05:24:53.320Z,17.05
2022-11-16T05:29:39.208Z,22.50
2022-11-16T05:34:26.858Z,19.35
2022-11-16T05:39:12.134Z,28.65
2022-11-16T05:43:57.847Z,23.98
2022-11-16T05:48:43.367Z,23.75
2022-11-16T05:53:30.977Z,22.13
2022-11-16T05:58:16.348Z,21.88
2022-11-16T06:03:01.511Z,26.90
2022-11-16T06:07:46.839Z,23.70
2022-11-16T06:12:34.439Z,19.73
2022-11-16T06:17:19.699Z,17.85
2022-11-16T06:22:04.709Z,23.88
2022-11-16T06:26:49.980Z,19.85
2022-11-16T06:31:37.638Z,24.15
2022-11-16T06:36:22.921Z,26.35
2022-11-16T06:41:08.274Z,25.77
2022-11-16T06:45:56.050Z,18.15
2022-11-16T06:50:43.680Z,19.15
2022-11-16T06:55:29.079Z,23.83
2022-11-16T07:00:15.469Z,16.27
2022-11-16T07:05:03.800Z,13.23
2022-11-16T07:09:51.603Z,13.55
2022-11-16T07:14:36.904Z,19.13
2022-11-16T07:19:22.436Z,20.25
2022-11-16T07:24:07.939Z,20.25
2022-11-16T07:28:55.531Z,24.52
2022-11-16T07:33:41.272Z,17.80
2022-11-16T07:38:26.272Z,22.67
2022-11-16T07:43:11.537Z,25.10
2022-11-16T07:47:59.170Z,19.63
2022-11-16T07:52:46.630Z,17.63
2022-11-16T07:57:31.859Z,13.20
2022-11-16T08:02:17.208Z,17.10
2022-11-16T08:07:04.836Z,14.77
2022-11-16T08:11:51.460Z,16.48
2022-11-16T08:16:36.457Z,24.00
2022-11-16T08:21:22.123Z,19.98
2022-11-16T08:26:14.499Z,14.18
2022-11-16T08:35:44.943Z,32.05
2022-11-16T08:40:30.031Z,26.55
2022-11-16T08:45:18.133Z,38.75
2022-11-16T08:50:03.612Z,42.90
2022-11-16T08:54:48.897Z,45.03
2022-11-16T08:59:33.908Z,39.28
2022-11-16T09:04:22.984Z,45.13
2022-11-16T09:09:08.317Z,58.30
2022-11-16T09:13:55.625Z,48.17
2022-11-16T09:18:40.794Z,37.30
2022-11-16T09:23:28.707Z,48.75
2022-11-16T09:28:14.203Z,40.30
2022-11-16T09:33:01.527Z,38.30
2022-11-16T09:37:46.956Z,33.85
2022-11-16T09:42:50.589Z,42.50
2022-11-16T09:47:49.465Z,39.78
2022-11-16T09:52:39.764Z,34.75
2022-11-16T09:57:32.165Z,26.60
2022-11-16T10:02:29.271Z,42.25
2022-11-16T10:07:18.604Z,27.65
2022-11-16T10:12:24.511Z,32.78
2022-11-16T10:17:19.945Z,31.27
2022-11-16T10:22:13.513Z,24.70
2022-11-16T10:27:20.797Z,24.95
2022-11-16T10:32:19.299Z,28.20
2022-11-16T10:37:08.990Z,32.10
2022-11-16T10:41:54.583Z,31.88
2022-11-16T10:46:46.627Z,27.38
2022-11-16T10:51:31.796Z,22.30
2022-11-16T10:56:25.063Z,21.10
2022-11-16T11:01:13.874Z,25.05
2022-11-16T11:05:59.463Z,23.00
2022-11-16T11:10:45.577Z,21.85
2022-11-16T11:15:33.360Z,21.35
2022-11-16T11:20:25.124Z,19.85
2022-11-16T11:25:23.369Z,15.75
2022-11-16T11:30:19.232Z,12.38
2022-11-16T11:35:08.180Z,23.38
2022-11-16T11:40:08.348Z,18.92
2022-11-16T11:45:00.632Z,15.13
2022-11-16T11:54:46.042Z,16.13
2022-11-16T11:59:31.429Z,14.98
2022-11-16T12:04:46.369Z,13.68
2022-11-16T12:09:43.789Z,14.63
2022-11-16T12:14:40.502Z,13.88
2022-11-16T12:19:47.199Z,16.95
2022-11-16T12:24:45.828Z,14.60
2022-11-16T12:29:40.262Z,15.77
2022-11-16T12:34:40.418Z,12.80
2022-11-16T12:39:27.307Z,13.52
2022-11-16T12:44:18.421Z,14.43
2022-11-16T12:49:29.595Z,16.88
2022-11-16T12:55:03.969Z,9.20
2022-11-16T13:00:05.085Z,13.57
2022-11-16T13:04:57.689Z,9.27
2022-11-16T13:09:46.336Z,14.27
2022-11-16T13:14:39.772Z,9.95
2022-11-16T13:19:27.964Z,12.57
2022-11-16T13:24:27.310Z,13.70
2022-11-16T13:29:23.412Z,9.45
2022-11-16T13:34:15.573Z,13.13
2022-11-16T13:39:03.479Z,12.15
2022-11-16T13:43:51.171Z,12.05
2022-11-16T13:48:39.524Z,11.23
2022-11-16T13:58:49.715Z,12.93
2022-11-16T14:03:41.323Z,7.60
2022-11-16T14:08:49.144Z,10.98
2022-11-16T14:13:47.392Z,13.90
2022-11-16T14:18:38.270Z,12.30
2022-11-16T14:23:33.894Z,5.83
2022-11-16T14:28:41.872Z,8.48
2022-11-16T14:33:34.314Z,7.95
2022-11-16T14:38:27.477Z,10.05
2022-11-16T14:43:21.219Z,10.15
2022-11-16T14:48:08.811Z,5.40
2022-11-16T14:53:00.279Z,9.70
2022-11-16T14:57:45.400Z,7.20
2022-11-16T15:02:31.059Z,8.40
2022-11-16T15:07:17.449Z,6.72
2022-11-16T15:12:20.045Z,8.82
2022-11-16T15:17:05.671Z,4.28
2022-11-16T15:21:55.453Z,2.05
2022-11-16T15:26:42.031Z,9.35
2022-11-16T15:31:29.689Z,4.18
2022-11-16T15:36:34.185Z,2.58
2022-11-16T15:41:21.924Z,3.80
2022-11-16T15:46:08.919Z,4.43
2022-11-16T15:51:10.843Z,3.78
2022-11-16T15:55:56.224Z,3.95
2022-11-16T16:00:41.595Z,4.50
2022-11-16T16:05:39.891Z,7.28
2022-11-16T16:10:29.042Z,6.50
2022-11-16T16:15:26.337Z,5.30
2022-11-16T16:20:21.176Z,5.15
2022-11-16T16:25:08.689Z,3.80
2022-11-16T16:29:58.809Z,4.25
2022-11-16T16:34:44.316Z,5.72
2022-11-16T16:39:32.081Z,3.40
2022-11-16T16:44:18.461Z,6.43
2022-11-16T16:49:06.349Z,9.52
2022-11-16T16:53:51.369Z,14.32
2022-11-16T16:58:36.669Z,25.48
2022-11-16T17:03:21.851Z,17.50
2022-11-16T17:08:09.952Z,19.35
2022-11-16T17:12:56.765Z,20.30
2022-11-16T17:17:43.072Z,18.63
2022-11-16T17:22:28.497Z,19.60
2022-11-16T17:27:16.201Z,20.63
2022-11-16T17:32:01.584Z,20.27
2022-11-16T17:36:47.630Z,17.08
2022-11-16T17:41:32.811Z,18.50
2022-11-16T17:46:23.567Z,15.25
2022-11-16T17:51:09.336Z,19.50
2022-11-16T17:55:54.732Z,22.90
2022-11-16T18:00:40.120Z,17.90
2022-11-16T18:05:28.068Z,18.23
2022-11-16T18:10:17.941Z,19.90
2022-11-16T18:15:27.575Z,16.35
2022-11-16T18:20:10.847Z,15.57
2022-11-16T18:24:58.442Z,17.05
2022-11-16T18:29:43.736Z,18.63
2022-11-16T18:34:29.284Z,19.45
2022-11-16T18:39:14.587Z,15.23
2022-11-16T18:44:03.969Z,13.50
2022-11-16T18:48:49.477Z,20.08
2022-11-16T18:53:36.638Z,24.77
2022-11-16T18:58:48.524Z,22.67
2022-11-16T19:03:30.041Z,17.00
2022-11-16T19:08:15.061Z,16.33
2022-11-16T19:13:00.384Z,21.20
2022-11-16T19:18:06.749Z,25.17
2022-11-16T19:22:53.284Z,18.92
2022-11-16T19:27:38.588Z,25.55
2022-11-16T19:32:23.864Z,23.77
2022-11-16T19:37:09.136Z,19.17
2022-11-16T19:41:56.808Z,25.83
2022-11-16T19:46:42.186Z,18.38
2022-11-16T19:51:29.576Z,23.02
2022-11-16T19:56:17.608Z,24.30
2022-11-16T20:01:10.391Z,22.95
2022-11-16T20:05:55.940Z,21.95
2022-11-16T20:10:41.008Z,30.88
2022-11-16T20:15:26.492Z,33.40
2022-11-16T20:20:14.705Z,39.70
2022-11-16T20:24:59.960Z,31.35
2022-11-16T20:29:44.959Z,31.02
2022-11-16T20:34:30.938Z,37.22
2022-11-16T20:39:20.149Z,32.45
2022-11-16T20:44:05.826Z,48.33
2022-11-16T20:48:51.497Z,36.35
2022-11-16T20:53:37.382Z,39.30
2022-11-16T20:58:25.192Z,52.65
2022-11-16T21:03:10.469Z,53.97
2022-11-16T21:07:55.484Z,55.95
2022-11-16T21:12:53.125Z,50.25
2022-11-16T21:17:40.766Z,55.20
2022-11-16T21:22:31.043Z,55.33
2022-11-16T21:27:17.184Z,56.90
2022-11-16T21:32:03.016Z,58.55
2022-11-16T21:36:52.416Z,67.15
2022-11-16T21:41:37.662Z,72.78
2022-11-16T21:46:24.988Z,77.53
2022-11-16T21:51:11.835Z,78.68
2022-11-16T21:55:59.646Z,80.90
2022-11-16T22:00:44.936Z,77.82
2022-11-16T22:05:42.628Z,76.40
2022-11-16T22:10:28.629Z,91.82
2022-11-16T22:15:16.969Z,90.53
2022-11-16T22:20:02.058Z,98.40
2022-11-16T22:24:47.567Z,86.05
2022-11-16T22:29:32.709Z,91.43
2022-11-16T22:34:20.620Z,91.05
2022-11-16T22:39:05.839Z,86.47
2022-11-16T22:43:51.172Z,78.53
2022-11-16T22:48:37.885Z,75.55
2022-11-16T22:53:25.828Z,69.88
2022-11-16T22:58:10.817Z,67.80
2022-11-16T23:02:56.212Z,67.60
2022-11-16T23:07:44.870Z,69.30
2022-11-16T23:12:44.866Z,79.07
2022-11-16T23:17:30.209Z,72.95
2022-11-16T23:22:29.922Z,70.95
2022-11-16T23:27:28.117Z,61.85
2022-11-16T23:32:16.096Z,66.22
2022-11-16T23:37:05.331Z,76.10
2022-11-16T23:42:02.693Z,67.63
2022-11-16T23:46:47.999Z,63.70
2022-11-16T23:51:35.989Z,58.60
2022-11-16T23:56:21.851Z,63.25
